sensor_id;sensor_type;location;lat;lon;timestamp;temperature;humidity
65478;SHT31;53678;39.642;22.430;2022-10-26T00:01:09;15.57;83.45
65478;SHT31;53678;39.642;22.430;2022-10-26T00:03:36;15.33;83.95
65478;SHT31;53678;39.642;22.430;2022-10-26T00:06:05;15.11;84.67
65478;SHT31;53678;39.642;22.430;2022-10-26T00:08:31;15.02;85.48
65478;SHT31;53678;39.642;22.430;2022-10-26T00:10:57;14.64;87.17
65478;SHT31;53678;39.642;22.430;2022-10-26T00:13:23;14.64;87.25
65478;SHT31;53678;39.642;22.430;2022-10-26T00:15:49;14.65;87.09
65478;SHT31;53678;39.642;22.430;2022-10-26T00:18:15;14.52;88.04
65478;SHT31;53678;39.642;22.430;2022-10-26T00:20:41;14.75;87.69
65478;SHT31;53678;39.642;22.430;2022-10-26T00:23:07;14.89;86.68
65478;SHT31;53678;39.642;22.430;2022-10-26T00:25:33;15.03;86.11
65478;SHT31;53678;39.642;22.430;2022-10-26T00:27:59;15.11;85.58
65478;SHT31;53678;39.642;22.430;2022-10-26T00:30:24;15.02;85.71
65478;SHT31;53678;39.642;22.430;2022-10-26T00:32:50;15.07;85.98
65478;SHT31;53678;39.642;22.430;2022-10-26T00:35:16;15.14;85.42
65478;SHT31;53678;39.642;22.430;2022-10-26T00:37:42;15.20;84.98
65478;SHT31;53678;39.642;22.430;2022-10-26T00:40:08;15.23;84.73
65478;SHT31;53678;39.642;22.430;2022-10-26T00:42:34;15.20;84.57
65478;SHT31;53678;39.642;22.430;2022-10-26T00:45:04;15.20;84.69
65478;SHT31;53678;39.642;22.430;2022-10-26T00:47:37;15.17;84.74
65478;SHT31;53678;39.642;22.430;2022-10-26T00:50:10;15.23;85.22
65478;SHT31;53678;39.642;22.430;2022-10-26T00:52:36;15.38;84.79
65478;SHT31;53678;39.642;22.430;2022-10-26T00:55:04;15.51;84.50
65478;SHT31;53678;39.642;22.430;2022-10-26T00:57:30;15.50;84.22
65478;SHT31;53678;39.642;22.430;2022-10-26T00:59:57;15.48;83.27
65478;SHT31;53678;39.642;22.430;2022-10-26T01:02:24;15.53;82.84
65478;SHT31;53678;39.642;22.430;2022-10-26T01:04:51;15.51;82.42
65478;SHT31;53678;39.642;22.430;2022-10-26T01:07:17;15.57;81.76
65478;SHT31;53678;39.642;22.430;2022-10-26T01:09:44;15.82;80.35
65478;SHT31;53678;39.642;22.430;2022-10-26T01:12:10;15.58;80.95
65478;SHT31;53678;39.642;22.430;2022-10-26T01:14:36;15.43;81.33
65478;SHT31;53678;39.642;22.430;2022-10-26T01:31:27;15.33;80.72
65478;SHT31;53678;39.642;22.430;2022-10-26T01:34:20;15.27;81.05
65478;SHT31;53678;39.642;22.430;2022-10-26T01:36:53;15.19;81.07
65478;SHT31;53678;39.642;22.430;2022-10-26T01:39:27;15.20;81.16
65478;SHT31;53678;39.642;22.430;2022-10-26T01:41:58;15.11;81.33
65478;SHT31;53678;39.642;22.430;2022-10-26T01:44:32;15.09;81.56
65478;SHT31;53678;39.642;22.430;2022-10-26T01:47:02;15.14;81.42
65478;SHT31;53678;39.642;22.430;2022-10-26T01:49:32;15.13;81.39
65478;SHT31;53678;39.642;22.430;2022-10-26T01:51:59;15.14;81.05
65478;SHT31;53678;39.642;22.430;2022-10-26T01:54:25;15.16;81.04
65478;SHT31;53678;39.642;22.430;2022-10-26T01:56:53;15.16;80.58
65478;SHT31;53678;39.642;22.430;2022-10-26T02:07:39;15.50;78.58
65478;SHT31;53678;39.642;22.430;2022-10-26T02:16:13;14.28;83.73
65478;SHT31;53678;39.642;22.430;2022-10-26T02:19:02;14.11;84.84
65478;SHT31;53678;39.642;22.430;2022-10-26T02:21:36;14.25;84.01
65478;SHT31;53678;39.642;22.430;2022-10-26T02:24:05;14.27;84.19
65478;SHT31;53678;39.642;22.430;2022-10-26T02:26:32;14.22;84.34
65478;SHT31;53678;39.642;22.430;2022-10-26T02:29:02;14.20;85.00
65478;SHT31;53678;39.642;22.430;2022-10-26T02:31:30;13.72;86.25
65478;SHT31;53678;39.642;22.430;2022-10-26T02:33:59;13.52;88.14
65478;SHT31;53678;39.642;22.430;2022-10-26T02:36:29;13.79;86.99
65478;SHT31;53678;39.642;22.430;2022-10-26T02:38:58;13.87;85.84
65478;SHT31;53678;39.642;22.430;2022-10-26T02:41:25;13.87;86.09
65478;SHT31;53678;39.642;22.430;2022-10-26T02:44:01;13.93;86.51
65478;SHT31;53678;39.642;22.430;2022-10-26T02:46:29;13.65;86.68
65478;SHT31;53678;39.642;22.430;2022-10-26T02:48:55;13.41;88.41
65478;SHT31;53678;39.642;22.430;2022-10-26T02:57:08;13.90;86.04
65478;SHT31;53678;39.642;22.430;2022-10-26T02:59:40;13.61;86.82
65478;SHT31;53678;39.642;22.430;2022-10-26T03:02:07;13.63;86.97
65478;SHT31;53678;39.642;22.430;2022-10-26T03:04:34;13.70;86.76
65478;SHT31;53678;39.642;22.430;2022-10-26T03:07:00;13.38;87.38
65478;SHT31;53678;39.642;22.430;2022-10-26T03:09:27;13.45;87.25
65478;SHT31;53678;39.642;22.430;2022-10-26T03:11:53;13.49;87.30
65478;SHT31;53678;39.642;22.430;2022-10-26T03:14:19;13.62;87.04
65478;SHT31;53678;39.642;22.430;2022-10-26T03:16:45;13.55;86.35
65478;SHT31;53678;39.642;22.430;2022-10-26T03:19:11;13.51;85.84
65478;SHT31;53678;39.642;22.430;2022-10-26T03:21:37;13.29;87.10
65478;SHT31;53678;39.642;22.430;2022-10-26T03:24:02;13.34;86.39
65478;SHT31;53678;39.642;22.430;2022-10-26T03:26:28;13.28;87.61
65478;SHT31;53678;39.642;22.430;2022-10-26T03:28:54;13.43;86.48
65478;SHT31;53678;39.642;22.430;2022-10-26T03:31:20;13.55;86.73
65478;SHT31;53678;39.642;22.430;2022-10-26T03:33:46;13.62;86.19
65478;SHT31;53678;39.642;22.430;2022-10-26T03:36:12;13.74;85.79
65478;SHT31;53678;39.642;22.430;2022-10-26T03:39:02;13.72;85.80
65478;SHT31;53678;39.642;22.430;2022-10-26T03:41:28;13.79;86.02
65478;SHT31;53678;39.642;22.430;2022-10-26T03:43:54;13.90;85.74
65478;SHT31;53678;39.642;22.430;2022-10-26T03:46:20;13.91;85.56
65478;SHT31;53678;39.642;22.430;2022-10-26T03:48:45;14.03;85.85
65478;SHT31;53678;39.642;22.430;2022-10-26T03:51:11;14.11;84.50
65478;SHT31;53678;39.642;22.430;2022-10-26T03:53:37;14.03;85.24
65478;SHT31;53678;39.642;22.430;2022-10-26T03:56:03;14.07;85.16
65478;SHT31;53678;39.642;22.430;2022-10-26T03:58:29;13.99;85.18
65478;SHT31;53678;39.642;22.430;2022-10-26T04:00:55;13.93;85.30
65478;SHT31;53678;39.642;22.430;2022-10-26T04:03:20;13.90;85.28
65478;SHT31;53678;39.642;22.430;2022-10-26T04:05:46;13.80;85.22
65478;SHT31;53678;39.642;22.430;2022-10-26T04:08:12;13.74;85.57
65478;SHT31;53678;39.642;22.430;2022-10-26T04:10:38;13.52;86.33
65478;SHT31;53678;39.642;22.430;2022-10-26T04:13:04;13.08;87.06
65478;SHT31;53678;39.642;22.430;2022-10-26T04:15:30;13.05;86.25
65478;SHT31;53678;39.642;22.430;2022-10-26T04:17:57;12.88;85.84
65478;SHT31;53678;39.642;22.430;2022-10-26T04:20:25;12.93;85.88
65478;SHT31;53678;39.642;22.430;2022-10-26T04:22:58;13.04;85.57
65478;SHT31;53678;39.642;22.430;2022-10-26T04:25:25;12.98;86.65
65478;SHT31;53678;39.642;22.430;2022-10-26T04:27:51;13.08;85.61
65478;SHT31;53678;39.642;22.430;2022-10-26T04:30:17;13.18;86.16
65478;SHT31;53678;39.642;22.430;2022-10-26T04:32:43;13.16;85.38
65478;SHT31;53678;39.642;22.430;2022-10-26T04:35:09;13.22;85.84
65478;SHT31;53678;39.642;22.430;2022-10-26T04:37:35;13.31;85.47
65478;SHT31;53678;39.642;22.430;2022-10-26T04:40:02;13.29;85.15
65478;SHT31;53678;39.642;22.430;2022-10-26T04:42:28;13.26;84.61
65478;SHT31;53678;39.642;22.430;2022-10-26T04:44:55;13.31;85.29
65478;SHT31;53678;39.642;22.430;2022-10-26T04:47:21;13.51;84.77
65478;SHT31;53678;39.642;22.430;2022-10-26T04:49:47;13.43;84.93
65478;SHT31;53678;39.642;22.430;2022-10-26T04:52:13;13.49;84.61
65478;SHT31;53678;39.642;22.430;2022-10-26T04:54:39;13.63;84.50
65478;SHT31;53678;39.642;22.430;2022-10-26T05:00:11;13.53;84.69
65478;SHT31;53678;39.642;22.430;2022-10-26T05:02:37;13.56;84.53
65478;SHT31;53678;39.642;22.430;2022-10-26T05:05:03;13.51;84.40
65478;SHT31;53678;39.642;22.430;2022-10-26T05:07:29;13.65;83.91
65478;SHT31;53678;39.642;22.430;2022-10-26T05:09:55;13.82;82.73
65478;SHT31;53678;39.642;22.430;2022-10-26T05:12:20;13.76;82.53
65478;SHT31;53678;39.642;22.430;2022-10-26T05:14:46;13.73;83.13
65478;SHT31;53678;39.642;22.430;2022-10-26T05:17:12;13.70;83.97
65478;SHT31;53678;39.642;22.430;2022-10-26T05:19:38;13.67;83.47
65478;SHT31;53678;39.642;22.430;2022-10-26T05:22:04;13.58;84.42
65478;SHT31;53678;39.642;22.430;2022-10-26T05:24:30;13.73;84.33
65478;SHT31;53678;39.642;22.430;2022-10-26T05:26:56;13.80;85.05
65478;SHT31;53678;39.642;22.430;2022-10-26T05:29:21;14.07;83.67
65478;SHT31;53678;39.642;22.430;2022-10-26T05:31:47;14.16;82.11
65478;SHT31;53678;39.642;22.430;2022-10-26T05:34:13;14.31;82.35
65478;SHT31;53678;39.642;22.430;2022-10-26T05:36:39;14.46;80.93
65478;SHT31;53678;39.642;22.430;2022-10-26T05:39:05;14.54;81.09
65478;SHT31;53678;39.642;22.430;2022-10-26T05:41:30;14.40;81.20
65478;SHT31;53678;39.642;22.430;2022-10-26T05:43:56;15.00;80.47
65478;SHT31;53678;39.642;22.430;2022-10-26T05:46:22;15.51;77.90
65478;SHT31;53678;39.642;22.430;2022-10-26T05:48:48;15.78;76.88
65478;SHT31;53678;39.642;22.430;2022-10-26T05:51:14;15.92;76.09
65478;SHT31;53678;39.642;22.430;2022-10-26T05:53:41;16.15;75.36
65478;SHT31;53678;39.642;22.430;2022-10-26T05:56:19;16.09;76.47
65478;SHT31;53678;39.642;22.430;2022-10-26T05:58:48;16.47;74.69
65478;SHT31;53678;39.642;22.430;2022-10-26T06:02:16;17.18;72.57
65478;SHT31;53678;39.642;22.430;2022-10-26T06:04:33;17.93;70.65
65478;SHT31;53678;39.642;22.430;2022-10-26T06:07:02;18.39;68.88
65478;SHT31;53678;39.642;22.430;2022-10-26T06:09:28;18.89;67.13
65478;SHT31;53678;39.642;22.430;2022-10-26T06:11:55;19.35;65.74
65478;SHT31;53678;39.642;22.430;2022-10-26T06:14:21;19.83;64.52
65478;SHT31;53678;39.642;22.430;2022-10-26T06:17:14;19.92;64.92
65478;SHT31;53678;39.642;22.430;2022-10-26T06:22:45;20.40;62.43
65478;SHT31;53678;39.642;22.430;2022-10-26T06:25:30;18.72;67.16
65478;SHT31;53678;39.642;22.430;2022-10-26T06:30:24;18.35;68.90
65478;SHT31;53678;39.642;22.430;2022-10-26T06:32:50;18.60;67.78
65478;SHT31;53678;39.642;22.430;2022-10-26T06:37:53;18.00;70.00
65478;SHT31;53678;39.642;22.430;2022-10-26T06:40:20;18.17;69.78
65478;SHT31;53678;39.642;22.430;2022-10-26T06:42:47;18.27;69.37
65478;SHT31;53678;39.642;22.430;2022-10-26T06:45:14;18.28;69.05
65478;SHT31;53678;39.642;22.430;2022-10-26T06:47:53;18.10;69.05
65478;SHT31;53678;39.642;22.430;2022-10-26T06:50:49;17.56;70.59
65478;SHT31;53678;39.642;22.430;2022-10-26T06:53:36;18.27;68.68
65478;SHT31;53678;39.642;22.430;2022-10-26T06:56:05;18.28;68.65
65478;SHT31;53678;39.642;22.430;2022-10-26T06:58:35;18.32;69.32
65478;SHT31;53678;39.642;22.430;2022-10-26T07:01:02;18.35;69.31
65478;SHT31;53678;39.642;22.430;2022-10-26T07:03:28;18.07;70.81
65478;SHT31;53678;39.642;22.430;2022-10-26T07:05:54;18.35;69.85
65478;SHT31;53678;39.642;22.430;2022-10-26T07:08:19;18.55;70.00
65478;SHT31;53678;39.642;22.430;2022-10-26T07:10:46;18.76;68.88
65478;SHT31;53678;39.642;22.430;2022-10-26T07:13:12;18.92;68.51
65478;SHT31;53678;39.642;22.430;2022-10-26T07:15:38;18.45;69.76
65478;SHT31;53678;39.642;22.430;2022-10-26T07:18:06;17.54;72.27
65478;SHT31;53678;39.642;22.430;2022-10-26T07:20:37;17.87;71.85
65478;SHT31;53678;39.642;22.430;2022-10-26T07:23:04;18.01;71.60
65478;SHT31;53678;39.642;22.430;2022-10-26T07:25:34;18.25;70.83
65478;SHT31;53678;39.642;22.430;2022-10-26T07:28:00;18.32;70.41
65478;SHT31;53678;39.642;22.430;2022-10-26T07:30:27;18.86;68.92
65478;SHT31;53678;39.642;22.430;2022-10-26T07:33:01;19.34;68.27
65478;SHT31;53678;39.642;22.430;2022-10-26T07:35:27;19.21;68.84
65478;SHT31;53678;39.642;22.430;2022-10-26T07:37:57;18.90;69.72
65478;SHT31;53678;39.642;22.430;2022-10-26T07:40:39;19.67;66.96
65478;SHT31;53678;39.642;22.430;2022-10-26T07:43:05;19.46;67.43
65478;SHT31;53678;39.642;22.430;2022-10-26T07:45:31;19.64;66.86
65478;SHT31;53678;39.642;22.430;2022-10-26T07:47:57;19.79;66.96
65478;SHT31;53678;39.642;22.430;2022-10-26T07:50:23;19.93;66.21
65478;SHT31;53678;39.642;22.430;2022-10-26T07:52:49;19.93;66.64
65478;SHT31;53678;39.642;22.430;2022-10-26T07:55:15;19.89;67.29
65478;SHT31;53678;39.642;22.430;2022-10-26T07:57:41;20.32;65.49
65478;SHT31;53678;39.642;22.430;2022-10-26T08:00:08;19.99;66.94
65478;SHT31;53678;39.642;22.430;2022-10-26T08:02:34;20.51;65.55
65478;SHT31;53678;39.642;22.430;2022-10-26T08:05:00;20.08;66.06
65478;SHT31;53678;39.642;22.430;2022-10-26T08:07:26;20.22;65.02
65478;SHT31;53678;39.642;22.430;2022-10-26T08:09:52;20.30;64.81
65478;SHT31;53678;39.642;22.430;2022-10-26T08:12:18;20.30;65.76
65478;SHT31;53678;39.642;22.430;2022-10-26T08:14:44;20.67;64.30
65478;SHT31;53678;39.642;22.430;2022-10-26T08:17:10;20.68;64.67
65478;SHT31;53678;39.642;22.430;2022-10-26T08:19:36;20.44;65.02
65478;SHT31;53678;39.642;22.430;2022-10-26T08:22:02;20.95;63.90
65478;SHT31;53678;39.642;22.430;2022-10-26T08:24:29;20.80;64.05
65478;SHT31;53678;39.642;22.430;2022-10-26T08:26:55;20.81;64.31
65478;SHT31;53678;39.642;22.430;2022-10-26T08:29:20;21.05;64.08
65478;SHT31;53678;39.642;22.430;2022-10-26T08:31:47;21.32;62.99
65478;SHT31;53678;39.642;22.430;2022-10-26T08:34:13;21.36;62.94
65478;SHT31;53678;39.642;22.430;2022-10-26T08:36:39;21.46;62.77
65478;SHT31;53678;39.642;22.430;2022-10-26T08:39:05;21.32;62.87
65478;SHT31;53678;39.642;22.430;2022-10-26T08:41:36;21.38;62.68
65478;SHT31;53678;39.642;22.430;2022-10-26T08:47:29;21.81;60.67
65478;SHT31;53678;39.642;22.430;2022-10-26T08:50:24;21.64;61.54
65478;SHT31;53678;39.642;22.430;2022-10-26T08:53:07;21.64;61.59
65478;SHT31;53678;39.642;22.430;2022-10-26T08:56:10;21.93;60.76
65478;SHT31;53678;39.642;22.430;2022-10-26T08:59:08;21.97;61.17
65478;SHT31;53678;39.642;22.430;2022-10-26T09:01:32;22.20;60.55
65478;SHT31;53678;39.642;22.430;2022-10-26T09:04:01;22.25;60.05
65478;SHT31;53678;39.642;22.430;2022-10-26T09:09:54;21.76;61.55
65478;SHT31;53678;39.642;22.430;2022-10-26T09:17:41;22.12;61.02
65478;SHT31;53678;39.642;22.430;2022-10-26T09:25:33;22.39;59.69
65478;SHT31;53678;39.642;22.430;2022-10-26T09:28:02;22.52;59.23
65478;SHT31;53678;39.642;22.430;2022-10-26T09:30:30;22.53;58.61
65478;SHT31;53678;39.642;22.430;2022-10-26T09:33:11;22.49;58.82
65478;SHT31;53678;39.642;22.430;2022-10-26T09:35:46;22.49;58.74
65478;SHT31;53678;39.642;22.430;2022-10-26T09:38:37;22.42;59.22
65478;SHT31;53678;39.642;22.430;2022-10-26T09:41:19;22.37;59.90
65478;SHT31;53678;39.642;22.430;2022-10-26T09:46:48;22.12;59.80
65478;SHT31;53678;39.642;22.430;2022-10-26T09:49:13;22.48;59.14
65478;SHT31;53678;39.642;22.430;2022-10-26T09:51:42;22.73;58.74
65478;SHT31;53678;39.642;22.430;2022-10-26T09:54:14;22.87;57.82
65478;SHT31;53678;39.642;22.430;2022-10-26T09:56:43;22.76;57.93
65478;SHT31;53678;39.642;22.430;2022-10-26T09:59:10;22.77;57.72
65478;SHT31;53678;39.642;22.430;2022-10-26T10:01:36;22.68;57.84
65478;SHT31;53678;39.642;22.430;2022-10-26T10:06:40;22.90;57.24
65478;SHT31;53678;39.642;22.430;2022-10-26T10:11:49;23.02;56.87
65478;SHT31;53678;39.642;22.430;2022-10-26T10:14:25;23.23;56.39
65478;SHT31;53678;39.642;22.430;2022-10-26T10:16:55;23.34;56.34
65478;SHT31;53678;39.642;22.430;2022-10-26T10:21:58;23.17;56.86
65478;SHT31;53678;39.642;22.430;2022-10-26T10:24:27;23.13;56.48
65478;SHT31;53678;39.642;22.430;2022-10-26T10:29:49;23.13;56.30
65478;SHT31;53678;39.642;22.430;2022-10-26T10:32:18;23.18;56.51
65478;SHT31;53678;39.642;22.430;2022-10-26T10:34:48;23.26;56.13
65478;SHT31;53678;39.642;22.430;2022-10-26T10:37:36;23.35;55.79
65478;SHT31;53678;39.642;22.430;2022-10-26T10:40:21;23.59;55.88
65478;SHT31;53678;39.642;22.430;2022-10-26T10:42:49;23.50;55.52
65478;SHT31;53678;39.642;22.430;2022-10-26T10:45:21;23.37;55.46
65478;SHT31;53678;39.642;22.430;2022-10-26T10:48:00;23.43;55.41
65478;SHT31;53678;39.642;22.430;2022-10-26T10:50:28;23.54;55.39
65478;SHT31;53678;39.642;22.430;2022-10-26T10:53:12;23.66;55.09
65478;SHT31;53678;39.642;22.430;2022-10-26T10:55:42;23.85;54.62
65478;SHT31;53678;39.642;22.430;2022-10-26T10:58:26;23.96;54.31
65478;SHT31;53678;39.642;22.430;2022-10-26T11:00:56;23.65;53.42
65478;SHT31;53678;39.642;22.430;2022-10-26T11:08:48;24.05;52.94
65478;SHT31;53678;39.642;22.430;2022-10-26T11:11:22;24.23;52.52
65478;SHT31;53678;39.642;22.430;2022-10-26T11:14:01;24.02;52.90
65478;SHT31;53678;39.642;22.430;2022-10-26T11:16:38;24.22;52.57
65478;SHT31;53678;39.642;22.430;2022-10-26T11:19:25;24.19;52.66
65478;SHT31;53678;39.642;22.430;2022-10-26T11:21:54;24.44;52.05
65478;SHT31;53678;39.642;22.430;2022-10-26T11:24:35;24.47;51.93
65478;SHT31;53678;39.642;22.430;2022-10-26T11:27:16;24.49;51.90
65478;SHT31;53678;39.642;22.430;2022-10-26T11:30:00;24.54;51.84
65478;SHT31;53678;39.642;22.430;2022-10-26T11:32:59;24.50;52.11
65478;SHT31;53678;39.642;22.430;2022-10-26T11:35:32;24.53;51.60
65478;SHT31;53678;39.642;22.430;2022-10-26T11:43:41;24.74;50.86
65478;SHT31;53678;39.642;22.430;2022-10-26T11:46:31;24.87;50.46
65478;SHT31;53678;39.642;22.430;2022-10-26T11:49:08;24.87;50.49
65478;SHT31;53678;39.642;22.430;2022-10-26T11:54:55;25.11;50.40
65478;SHT31;53678;39.642;22.430;2022-10-26T11:57:24;25.14;49.72
65478;SHT31;53678;39.642;22.430;2022-10-26T11:59:53;25.29;49.47
65478;SHT31;53678;39.642;22.430;2022-10-26T12:02:22;25.43;48.73
65478;SHT31;53678;39.642;22.430;2022-10-26T12:04:53;25.51;48.15
65478;SHT31;53678;39.642;22.430;2022-10-26T12:07:28;25.56;47.43
65478;SHT31;53678;39.642;22.430;2022-10-26T12:09:55;25.51;47.47
65478;SHT31;53678;39.642;22.430;2022-10-26T12:15:03;25.36;46.46
65478;SHT31;53678;39.642;22.430;2022-10-26T12:23:15;25.29;46.34
65478;SHT31;53678;39.642;22.430;2022-10-26T12:25:42;25.29;46.06
65478;SHT31;53678;39.642;22.430;2022-10-26T12:33:57;25.77;45.60
65478;SHT31;53678;39.642;22.430;2022-10-26T12:36:49;25.80;45.24
65478;SHT31;53678;39.642;22.430;2022-10-26T12:39:33;25.60;45.29
65478;SHT31;53678;39.642;22.430;2022-10-26T12:47:04;25.67;45.42
65478;SHT31;53678;39.642;22.430;2022-10-26T12:52:52;25.98;44.38
65478;SHT31;53678;39.642;22.430;2022-10-26T12:55:28;26.08;44.57
65478;SHT31;53678;39.642;22.430;2022-10-26T13:00:50;26.21;44.56
65478;SHT31;53678;39.642;22.430;2022-10-26T13:03:38;26.15;45.03
65478;SHT31;53678;39.642;22.430;2022-10-26T13:08:54;26.07;45.14
65478;SHT31;53678;39.642;22.430;2022-10-26T13:11:32;25.96;45.39
65478;SHT31;53678;39.642;22.430;2022-10-26T13:14:02;26.24;46.49
65478;SHT31;53678;39.642;22.430;2022-10-26T13:16:29;26.20;48.02
65478;SHT31;53678;39.642;22.430;2022-10-26T13:18:55;26.09;48.49
65478;SHT31;53678;39.642;22.430;2022-10-26T13:21:22;26.11;47.99
65478;SHT31;53678;39.642;22.430;2022-10-26T13:26:24;26.00;48.34
65478;SHT31;53678;39.642;22.430;2022-10-26T13:37:05;25.71;49.17
65478;SHT31;53678;39.642;22.430;2022-10-26T13:39:37;25.58;49.47
65478;SHT31;53678;39.642;22.430;2022-10-26T13:42:06;25.60;49.47
65478;SHT31;53678;39.642;22.430;2022-10-26T13:44:43;25.53;48.63
65478;SHT31;53678;39.642;22.430;2022-10-26T13:47:16;25.26;48.63
65478;SHT31;53678;39.642;22.430;2022-10-26T13:49:50;25.28;48.85
65478;SHT31;53678;39.642;22.430;2022-10-26T13:52:48;25.14;48.52
65478;SHT31;53678;39.642;22.430;2022-10-26T13:58:21;25.15;49.41
65478;SHT31;53678;39.642;22.430;2022-10-26T14:03:36;25.02;49.96
65478;SHT31;53678;39.642;22.430;2022-10-26T14:06:06;24.95;49.55
65478;SHT31;53678;39.642;22.430;2022-10-26T14:08:39;24.81;50.05
65478;SHT31;53678;39.642;22.430;2022-10-26T14:11:11;24.63;50.60
65478;SHT31;53678;39.642;22.430;2022-10-26T14:13:38;24.59;50.81
65478;SHT31;53678;39.642;22.430;2022-10-26T14:16:06;24.43;50.44
65478;SHT31;53678;39.642;22.430;2022-10-26T14:18:33;24.32;51.33
65478;SHT31;53678;39.642;22.430;2022-10-26T14:21:02;24.10;51.53
65478;SHT31;53678;39.642;22.430;2022-10-26T14:23:34;24.06;51.93
65478;SHT31;53678;39.642;22.430;2022-10-26T14:26:00;24.03;51.98
65478;SHT31;53678;39.642;22.430;2022-10-26T14:28:28;23.96;51.96
65478;SHT31;53678;39.642;22.430;2022-10-26T14:31:22;23.79;52.42
65478;SHT31;53678;39.642;22.430;2022-10-26T14:33:49;23.71;52.38
65478;SHT31;53678;39.642;22.430;2022-10-26T14:36:15;23.62;52.35
65478;SHT31;53678;39.642;22.430;2022-10-26T14:38:44;23.62;52.33
65478;SHT31;53678;39.642;22.430;2022-10-26T14:41:13;23.58;51.98
65478;SHT31;53678;39.642;22.430;2022-10-26T14:43:40;23.38;52.37
65478;SHT31;53678;39.642;22.430;2022-10-26T14:46:13;23.33;52.55
65478;SHT31;53678;39.642;22.430;2022-10-26T14:48:43;23.35;52.54
65478;SHT31;53678;39.642;22.430;2022-10-26T14:51:16;23.21;51.80
65478;SHT31;53678;39.642;22.430;2022-10-26T14:53:53;23.23;51.66
65478;SHT31;53678;39.642;22.430;2022-10-26T14:56:25;23.07;52.24
65478;SHT31;53678;39.642;22.430;2022-10-26T14:58:53;23.06;52.79
65478;SHT31;53678;39.642;22.430;2022-10-26T15:04:00;22.86;54.14
65478;SHT31;53678;39.642;22.430;2022-10-26T15:08:55;22.75;54.93
65478;SHT31;53678;39.642;22.430;2022-10-26T15:11:22;22.60;55.34
65478;SHT31;53678;39.642;22.430;2022-10-26T15:13:48;22.56;55.58
65478;SHT31;53678;39.642;22.430;2022-10-26T15:16:22;22.56;55.83
65478;SHT31;53678;39.642;22.430;2022-10-26T15:19:14;22.49;56.23
65478;SHT31;53678;39.642;22.430;2022-10-26T15:21:44;22.32;56.96
65478;SHT31;53678;39.642;22.430;2022-10-26T15:26:45;22.25;57.56
65478;SHT31;53678;39.642;22.430;2022-10-26T15:32:00;22.11;58.36
65478;SHT31;53678;39.642;22.430;2022-10-26T15:34:26;21.98;58.84
65478;SHT31;53678;39.642;22.430;2022-10-26T15:36:52;21.97;58.86
65478;SHT31;53678;39.642;22.430;2022-10-26T15:45:45;21.74;60.11
65478;SHT31;53678;39.642;22.430;2022-10-26T15:48:24;21.76;60.40
65478;SHT31;53678;39.642;22.430;2022-10-26T15:50:52;21.59;60.57
65478;SHT31;53678;39.642;22.430;2022-10-26T15:53:20;21.53;60.71
65478;SHT31;53678;39.642;22.430;2022-10-26T15:55:51;21.42;60.81
65478;SHT31;53678;39.642;22.430;2022-10-26T15:58:18;21.41;60.95
65478;SHT31;53678;39.642;22.430;2022-10-26T16:00:44;21.36;61.46
65478;SHT31;53678;39.642;22.430;2022-10-26T16:03:16;21.25;62.09
65478;SHT31;53678;39.642;22.430;2022-10-26T16:05:43;21.18;62.46
65478;SHT31;53678;39.642;22.430;2022-10-26T16:08:14;21.19;62.57
65478;SHT31;53678;39.642;22.430;2022-10-26T16:10:41;21.13;62.88
65478;SHT31;53678;39.642;22.430;2022-10-26T16:13:14;21.05;63.19
65478;SHT31;53678;39.642;22.430;2022-10-26T16:15:40;20.94;63.46
65478;SHT31;53678;39.642;22.430;2022-10-26T16:18:06;20.92;63.75
65478;SHT31;53678;39.642;22.430;2022-10-26T16:24:12;20.70;64.69
65478;SHT31;53678;39.642;22.430;2022-10-26T16:36:36;20.50;65.51
65478;SHT31;53678;39.642;22.430;2022-10-26T16:39:04;20.48;65.52
65478;SHT31;53678;39.642;22.430;2022-10-26T16:41:30;20.48;65.53
65478;SHT31;53678;39.642;22.430;2022-10-26T16:43:57;20.46;65.65
65478;SHT31;53678;39.642;22.430;2022-10-26T16:46:23;20.39;65.98
65478;SHT31;53678;39.642;22.430;2022-10-26T16:48:50;20.34;66.46
65478;SHT31;53678;39.642;22.430;2022-10-26T16:51:21;20.16;66.84
65478;SHT31;53678;39.642;22.430;2022-10-26T16:53:49;20.05;67.35
65478;SHT31;53678;39.642;22.430;2022-10-26T16:56:18;20.05;67.58
65478;SHT31;53678;39.642;22.430;2022-10-26T16:58:44;19.90;68.12
65478;SHT31;53678;39.642;22.430;2022-10-26T17:01:10;19.82;68.63
65478;SHT31;53678;39.642;22.430;2022-10-26T17:03:38;19.75;69.02
65478;SHT31;53678;39.642;22.430;2022-10-26T17:06:07;19.69;69.59
65478;SHT31;53678;39.642;22.430;2022-10-26T17:08:35;19.65;70.03
65478;SHT31;53678;39.642;22.430;2022-10-26T17:11:10;19.61;70.18
65478;SHT31;53678;39.642;22.430;2022-10-26T17:13:38;19.61;70.33
65478;SHT31;53678;39.642;22.430;2022-10-26T17:16:06;19.67;70.26
65478;SHT31;53678;39.642;22.430;2022-10-26T17:18:33;19.68;69.97
65478;SHT31;53678;39.642;22.430;2022-10-26T17:20:58;19.59;69.76
65478;SHT31;53678;39.642;22.430;2022-10-26T17:23:25;19.74;69.61
65478;SHT31;53678;39.642;22.430;2022-10-26T17:25:52;19.71;69.21
65478;SHT31;53678;39.642;22.430;2022-10-26T17:28:18;19.65;68.84
65478;SHT31;53678;39.642;22.430;2022-10-26T17:30:44;19.67;68.81
65478;SHT31;53678;39.642;22.430;2022-10-26T17:33:11;19.54;69.07
65478;SHT31;53678;39.642;22.430;2022-10-26T17:35:37;19.65;68.62
65478;SHT31;53678;39.642;22.430;2022-10-26T17:38:03;19.62;68.18
65478;SHT31;53678;39.642;22.430;2022-10-26T17:40:30;19.75;67.55
65478;SHT31;53678;39.642;22.430;2022-10-26T17:42:57;19.76;67.26
65478;SHT31;53678;39.642;22.430;2022-10-26T17:45:24;19.69;67.40
65478;SHT31;53678;39.642;22.430;2022-10-26T17:47:50;19.71;67.30
65478;SHT31;53678;39.642;22.430;2022-10-26T17:50:16;19.69;67.69
65478;SHT31;53678;39.642;22.430;2022-10-26T17:52:42;19.65;67.86
65478;SHT31;53678;39.642;22.430;2022-10-26T17:55:08;19.64;67.68
65478;SHT31;53678;39.642;22.430;2022-10-26T17:57:35;19.64;67.64
65478;SHT31;53678;39.642;22.430;2022-10-26T18:00:01;19.65;67.38
65478;SHT31;53678;39.642;22.430;2022-10-26T18:02:37;19.72;66.97
65478;SHT31;53678;39.642;22.430;2022-10-26T18:05:05;19.75;67.05
65478;SHT31;53678;39.642;22.430;2022-10-26T18:07:31;19.74;67.71
65478;SHT31;53678;39.642;22.430;2022-10-26T18:09:57;19.68;68.25
65478;SHT31;53678;39.642;22.430;2022-10-26T18:12:23;19.64;68.39
65478;SHT31;53678;39.642;22.430;2022-10-26T18:14:49;19.54;67.96
65478;SHT31;53678;39.642;22.430;2022-10-26T18:17:15;19.54;68.16